WTL155H EDDL-EPSY
Flight info
| Callsign | WTL155H |
|---|---|
| Flight time | 1h 25m |
| Altitude | 33000 |
| Route | MEVEL4T MEVEL L179 MISRI Z851 ROBEG DCT ALUKA/N0433F350 L29 GRUDA T720 IBINO |
| Aircraft | A320/M-SDE2E3FGHIJ1RWXYZ/HB1 |
Departure
| Time | 2026-04-15 08:29 |
|---|---|
| Airport | Düsseldorf Airport (EDDL) |
Arrival
| Time | 2026-04-15 09:55 |
|---|---|
| Airport | Olsztyn-Mazury Airport (EPSY) |
| Time | Latitude | Longitude | Altitude | Speed | Heading |
|---|---|---|---|---|---|
| 2026-04-15 06:58 | 51.27914 | 6.75927 | 118 ft | 0 kts | 92° |
| 2026-04-15 08:21 | 51.27914 | 6.75931 | 118 ft | 0 kts | 93° |
| 2026-04-15 08:21 | 51.27913 | 6.75951 | 118 ft | 2 kts | 93° |
| 2026-04-15 08:21 | 51.27913 | 6.75994 | 118 ft | 5 kts | 90° |
| 2026-04-15 08:22 | 51.27934 | 6.76045 | 119 ft | 7 kts | 20° |
| 2026-04-15 08:22 | 51.27996 | 6.76048 | 118 ft | 9 kts | 0° |
| 2026-04-15 08:22 | 51.28066 | 6.76046 | 118 ft | 10 kts | 349° |
| 2026-04-15 08:22 | 51.28134 | 6.76043 | 118 ft | 10 kts | 30° |
| 2026-04-15 08:23 | 51.28176 | 6.76121 | 119 ft | 8 kts | 54° |
| 2026-04-15 08:23 | 51.28212 | 6.76196 | 120 ft | 9 kts | 53° |
| 2026-04-15 08:23 | 51.28257 | 6.76289 | 121 ft | 12 kts | 53° |
| 2026-04-15 08:23 | 51.28315 | 6.76410 | 122 ft | 14 kts | 53° |
| 2026-04-15 08:24 | 51.28370 | 6.76527 | 124 ft | 12 kts | 53° |
| 2026-04-15 08:24 | 51.28421 | 6.76634 | 125 ft | 12 kts | 53° |
| 2026-04-15 08:24 | 51.28475 | 6.76748 | 125 ft | 12 kts | 53° |
| 2026-04-15 08:24 | 51.28523 | 6.76849 | 126 ft | 11 kts | 52° |
| 2026-04-15 08:25 | 51.28574 | 6.76954 | 125 ft | 13 kts | 53° |
| 2026-04-15 08:25 | 51.28633 | 6.77077 | 124 ft | 14 kts | 52° |
| 2026-04-15 08:25 | 51.28696 | 6.77211 | 124 ft | 15 kts | 53° |
| 2026-04-15 08:25 | 51.28757 | 6.77340 | 125 ft | 15 kts | 53° |
| 2026-04-15 08:26 | 51.28825 | 6.77483 | 123 ft | 16 kts | 52° |
| 2026-04-15 08:26 | 51.28896 | 6.77632 | 123 ft | 17 kts | 52° |
| 2026-04-15 08:26 | 51.28968 | 6.77783 | 124 ft | 17 kts | 53° |
| 2026-04-15 08:26 | 51.29042 | 6.77939 | 125 ft | 16 kts | 53° |
| 2026-04-15 08:27 | 51.29111 | 6.78083 | 126 ft | 16 kts | 53° |
| 2026-04-15 08:27 | 51.29182 | 6.78230 | 128 ft | 16 kts | 49° |
| 2026-04-15 08:27 | 51.29264 | 6.78332 | 132 ft | 14 kts | 36° |
| 2026-04-15 08:27 | 51.29336 | 6.78417 | 135 ft | 12 kts | 37° |
| 2026-04-15 08:28 | 51.29403 | 6.78472 | 137 ft | 10 kts | 1° |
| 2026-04-15 08:28 | 51.29473 | 6.78460 | 138 ft | 8 kts | 345° |
| 2026-04-15 08:28 | 51.29485 | 6.78396 | 137 ft | 6 kts | 234° |
| 2026-04-15 08:28 | 51.29482 | 6.78391 | 137 ft | 1 kts | 233° |
| 2026-04-15 08:29 | 51.29432 | 6.78285 | 133 ft | 40 kts | 232° |
| 2026-04-15 08:29 | 51.29094 | 6.77576 | 123 ft | 117 kts | 233° |
| 2026-04-15 08:29 | 51.28484 | 6.76285 | 252 ft | 164 kts | 230° |
| 2026-04-15 08:29 | 51.27796 | 6.74826 | 975 ft | 166 kts | 231° |
| 2026-04-15 08:30 | 51.27132 | 6.73372 | 1782 ft | 166 kts | 233° |
| 2026-04-15 08:30 | 51.26785 | 6.71642 | 2520 ft | 172 kts | 275° |
| 2026-04-15 08:30 | 51.27351 | 6.70022 | 3159 ft | 179 kts | 318° |
| 2026-04-15 08:30 | 51.28367 | 6.68833 | 3753 ft | 187 kts | 326° |
| 2026-04-15 08:31 | 51.29608 | 6.68160 | 4215 ft | 202 kts | 1° |
| 2026-04-15 08:31 | 51.31048 | 6.68468 | 4693 ft | 217 kts | 10° |
| 2026-04-15 08:31 | 51.32605 | 6.68866 | 5112 ft | 239 kts | 8° |
| 2026-04-15 08:31 | 51.34324 | 6.69146 | 5652 ft | 256 kts | 5° |
| 2026-04-15 08:32 | 51.36159 | 6.69338 | 6201 ft | 273 kts | 4° |
| 2026-04-15 08:32 | 51.38045 | 6.69526 | 6932 ft | 280 kts | 3° |
| 2026-04-15 08:32 | 51.39998 | 6.69612 | 7777 ft | 283 kts | 0° |
| 2026-04-15 08:32 | 51.41949 | 6.69625 | 8621 ft | 286 kts | 360° |
| 2026-04-15 08:33 | 51.43950 | 6.69628 | 9442 ft | 289 kts | 359° |
| 2026-04-15 08:33 | 51.45932 | 6.69629 | 10225 ft | 292 kts | 359° |
| 2026-04-15 08:33 | 51.47969 | 6.69629 | 10886 ft | 300 kts | 359° |
| 2026-04-15 08:33 | 51.50129 | 6.69631 | 11345 ft | 315 kts | 359° |
| 2026-04-15 08:34 | 51.52308 | 6.69635 | 12020 ft | 320 kts | 359° |
| 2026-04-15 08:34 | 51.54531 | 6.69642 | 12768 ft | 322 kts | 359° |
| 2026-04-15 08:34 | 51.56793 | 6.69648 | 13501 ft | 325 kts | 359° |
| 2026-04-15 08:34 | 51.59048 | 6.69655 | 14194 ft | 328 kts | 359° |
| 2026-04-15 08:35 | 51.61285 | 6.70222 | 14814 ft | 335 kts | 20° |
| 2026-04-15 08:35 | 51.63229 | 6.72264 | 15456 ft | 341 kts | 45° |
| 2026-04-15 08:35 | 51.64685 | 6.75248 | 16112 ft | 344 kts | 53° |
| 2026-04-15 08:35 | 51.66096 | 6.78412 | 16722 ft | 347 kts | 53° |
| 2026-04-15 08:36 | 51.67508 | 6.81557 | 17298 ft | 351 kts | 52° |
| 2026-04-15 08:36 | 51.68934 | 6.84694 | 17867 ft | 354 kts | 52° |
| 2026-04-15 08:36 | 51.70395 | 6.87886 | 18437 ft | 357 kts | 52° |
| 2026-04-15 08:36 | 51.71865 | 6.91093 | 18990 ft | 360 kts | 51° |
| 2026-04-15 08:37 | 51.73359 | 6.94350 | 19535 ft | 363 kts | 51° |
| 2026-04-15 08:37 | 51.74868 | 6.97645 | 20084 ft | 365 kts | 51° |
| 2026-04-15 08:37 | 51.76368 | 7.00932 | 20621 ft | 368 kts | 51° |
| 2026-04-15 08:37 | 51.77889 | 7.04264 | 21151 ft | 371 kts | 51° |
| 2026-04-15 08:38 | 51.79410 | 7.07605 | 21659 ft | 373 kts | 51° |
| 2026-04-15 08:38 | 51.80945 | 7.10978 | 22158 ft | 376 kts | 52° |
| 2026-04-15 08:38 | 51.82489 | 7.14381 | 22648 ft | 378 kts | 51° |
| 2026-04-15 08:38 | 51.84029 | 7.17780 | 23120 ft | 381 kts | 52° |
| 2026-04-15 08:39 | 51.85511 | 7.21365 | 23586 ft | 385 kts | 56° |
| 2026-04-15 08:39 | 51.86839 | 7.25088 | 24041 ft | 388 kts | 59° |
| 2026-04-15 08:39 | 51.88109 | 7.28954 | 24483 ft | 391 kts | 59° |
| 2026-04-15 08:39 | 51.89369 | 7.32846 | 24902 ft | 394 kts | 59° |
| 2026-04-15 08:40 | 51.90645 | 7.36793 | 25325 ft | 397 kts | 59° |
| 2026-04-15 08:40 | 51.91918 | 7.40719 | 25776 ft | 399 kts | 59° |
| 2026-04-15 08:40 | 51.93185 | 7.44715 | 26227 ft | 401 kts | 61° |
| 2026-04-15 08:40 | 51.94291 | 7.48855 | 26635 ft | 405 kts | 65° |
| 2026-04-15 08:41 | 51.95197 | 7.53157 | 27029 ft | 409 kts | 70° |
| 2026-04-15 08:41 | 51.95975 | 7.57613 | 27418 ft | 412 kts | 71° |
| 2026-04-15 08:41 | 51.96725 | 7.62082 | 27787 ft | 415 kts | 71° |
| 2026-04-15 08:41 | 51.97484 | 7.66621 | 28147 ft | 417 kts | 71° |
| 2026-04-15 08:42 | 51.98237 | 7.71116 | 28495 ft | 420 kts | 71° |
| 2026-04-15 08:42 | 51.99004 | 7.75679 | 28841 ft | 422 kts | 71° |
| 2026-04-15 08:42 | 51.99774 | 7.80262 | 29177 ft | 424 kts | 71° |
| 2026-04-15 08:42 | 52.00549 | 7.84886 | 29505 ft | 427 kts | 71° |
| 2026-04-15 08:43 | 52.01326 | 7.89544 | 29817 ft | 429 kts | 71° |
| 2026-04-15 08:43 | 52.02103 | 7.94232 | 30125 ft | 432 kts | 71° |
| 2026-04-15 08:43 | 52.02872 | 7.98900 | 30411 ft | 434 kts | 71° |
| 2026-04-15 08:43 | 52.03650 | 8.03621 | 30702 ft | 436 kts | 70° |
| 2026-04-15 08:44 | 52.04440 | 8.08390 | 31004 ft | 438 kts | 70° |
| 2026-04-15 08:44 | 52.05230 | 8.13156 | 31280 ft | 440 kts | 70° |
| 2026-04-15 08:44 | 52.06013 | 8.17907 | 31541 ft | 442 kts | 70° |
| 2026-04-15 08:44 | 52.06806 | 8.22743 | 31824 ft | 443 kts | 70° |
| 2026-04-15 08:45 | 52.07600 | 8.27600 | 32099 ft | 445 kts | 69° |
| 2026-04-15 08:45 | 52.08389 | 8.32435 | 32356 ft | 446 kts | 69° |
| 2026-04-15 08:45 | 52.09177 | 8.37287 | 32598 ft | 448 kts | 69° |
| 2026-04-15 08:45 | 52.09962 | 8.42140 | 32843 ft | 449 kts | 69° |
| 2026-04-15 08:46 | 52.10754 | 8.47057 | 33106 ft | 451 kts | 69° |
| 2026-04-15 08:46 | 52.11549 | 8.52005 | 33344 ft | 452 kts | 69° |
| 2026-04-15 08:46 | 52.12338 | 8.56925 | 33586 ft | 454 kts | 69° |
| 2026-04-15 08:46 | 52.13133 | 8.61900 | 33836 ft | 455 kts | 69° |
| 2026-04-15 08:47 | 52.13917 | 8.66829 | 34058 ft | 456 kts | 69° |
| 2026-04-15 08:47 | 52.14714 | 8.71846 | 34316 ft | 456 kts | 69° |
| 2026-04-15 08:47 | 52.15491 | 8.76765 | 34576 ft | 455 kts | 69° |
| 2026-04-15 08:47 | 52.16275 | 8.81741 | 34829 ft | 455 kts | 69° |
| 2026-04-15 08:48 | 52.17062 | 8.86749 | 35088 ft | 454 kts | 69° |
| 2026-04-15 08:48 | 52.17835 | 8.91687 | 35351 ft | 452 kts | 69° |
| 2026-04-15 08:48 | 52.18602 | 8.96582 | 35590 ft | 452 kts | 69° |
| 2026-04-15 08:48 | 52.19390 | 9.01567 | 35773 ft | 452 kts | 69° |
| 2026-04-15 08:49 | 52.20163 | 9.06474 | 35934 ft | 453 kts | 69° |
| 2026-04-15 08:49 | 52.20948 | 9.11470 | 36112 ft | 453 kts | 69° |
| 2026-04-15 08:49 | 52.21719 | 9.16393 | 36255 ft | 455 kts | 69° |
| 2026-04-15 08:49 | 52.22501 | 9.21419 | 36424 ft | 455 kts | 69° |
| 2026-04-15 08:50 | 52.23268 | 9.26372 | 36628 ft | 455 kts | 69° |
| 2026-04-15 08:50 | 52.24039 | 9.31334 | 36819 ft | 455 kts | 69° |
| 2026-04-15 08:50 | 52.24824 | 9.36392 | 37003 ft | 456 kts | 69° |
| 2026-04-15 08:50 | 52.25589 | 9.41333 | 37140 ft | 457 kts | 69° |
| 2026-04-15 08:51 | 52.26368 | 9.46375 | 37245 ft | 458 kts | 69° |
| 2026-04-15 08:51 | 52.27903 | 9.56386 | 37251 ft | 458 kts | 69° |
| 2026-04-15 08:52 | 52.29443 | 9.66500 | 37254 ft | 459 kts | 69° |
| 2026-04-15 08:52 | 52.30970 | 9.76585 | 37259 ft | 459 kts | 69° |
| 2026-04-15 08:53 | 52.32493 | 9.86712 | 37258 ft | 460 kts | 69° |
| 2026-04-15 08:53 | 52.34005 | 9.96820 | 37254 ft | 460 kts | 69° |
| 2026-04-15 08:54 | 52.35518 | 10.07004 | 37252 ft | 462 kts | 69° |
| 2026-04-15 08:54 | 52.37011 | 10.17132 | 37253 ft | 461 kts | 69° |
| 2026-04-15 08:55 | 52.38502 | 10.27314 | 37254 ft | 461 kts | 69° |
| 2026-04-15 08:55 | 52.39983 | 10.37474 | 37257 ft | 461 kts | 69° |
| 2026-04-15 08:56 | 52.41455 | 10.47650 | 37257 ft | 460 kts | 69° |
| 2026-04-15 08:56 | 52.42918 | 10.57832 | 37259 ft | 461 kts | 69° |
| 2026-04-15 08:57 | 52.44370 | 10.67997 | 37257 ft | 461 kts | 70° |
| 2026-04-15 08:57 | 52.45811 | 10.78166 | 37258 ft | 461 kts | 70° |
| 2026-04-15 08:58 | 52.47245 | 10.88340 | 37259 ft | 461 kts | 70° |
| 2026-04-15 08:58 | 52.49379 | 11.03625 | 37250 ft | 461 kts | 70° |
| 2026-04-15 08:59 | 52.50803 | 11.13893 | 37259 ft | 461 kts | 70° |
| 2026-04-15 08:59 | 52.52205 | 11.24091 | 37259 ft | 462 kts | 70° |
| 2026-04-15 09:00 | 52.53607 | 11.34354 | 37255 ft | 461 kts | 70° |
| 2026-04-15 09:00 | 52.54985 | 11.44525 | 37243 ft | 459 kts | 70° |
| 2026-04-15 09:01 | 52.56364 | 11.54754 | 37257 ft | 459 kts | 70° |
| 2026-04-15 09:01 | 52.57736 | 11.65005 | 37241 ft | 459 kts | 70° |
| 2026-04-15 09:02 | 52.59090 | 11.75191 | 37249 ft | 459 kts | 71° |
| 2026-04-15 09:02 | 52.60438 | 11.85412 | 37254 ft | 461 kts | 71° |
| 2026-04-15 09:03 | 52.61784 | 11.95688 | 37257 ft | 461 kts | 71° |
| 2026-04-15 09:03 | 52.63120 | 12.05979 | 37272 ft | 460 kts | 71° |
| 2026-04-15 09:04 | 52.64444 | 12.16242 | 37273 ft | 460 kts | 71° |
| 2026-04-15 09:04 | 52.65760 | 12.26517 | 37273 ft | 460 kts | 71° |
| 2026-04-15 09:05 | 52.67067 | 12.36796 | 37277 ft | 461 kts | 71° |
| 2026-04-15 09:05 | 52.68366 | 12.47094 | 37275 ft | 461 kts | 71° |
| 2026-04-15 09:06 | 52.69655 | 12.57381 | 37277 ft | 461 kts | 72° |
| 2026-04-15 09:06 | 52.70938 | 12.67699 | 37274 ft | 461 kts | 72° |
| 2026-04-15 09:07 | 52.72213 | 12.78039 | 37276 ft | 461 kts | 72° |
| 2026-04-15 09:07 | 52.73477 | 12.88357 | 37263 ft | 461 kts | 72° |
| 2026-04-15 09:08 | 52.74727 | 12.98647 | 37275 ft | 461 kts | 72° |
| 2026-04-15 09:08 | 52.75975 | 13.08989 | 37281 ft | 462 kts | 72° |
| 2026-04-15 09:09 | 52.77212 | 13.19332 | 37279 ft | 462 kts | 72° |
| 2026-04-15 09:09 | 52.78447 | 13.29734 | 37275 ft | 462 kts | 73° |
| 2026-04-15 09:10 | 52.79672 | 13.40132 | 37274 ft | 463 kts | 73° |
| 2026-04-15 09:10 | 52.80888 | 13.50530 | 37278 ft | 464 kts | 73° |
| 2026-04-15 09:11 | 52.82095 | 13.60963 | 37283 ft | 464 kts | 73° |
| 2026-04-15 09:11 | 52.83295 | 13.71413 | 37275 ft | 466 kts | 74° |
| 2026-04-15 09:12 | 52.84492 | 13.81904 | 37272 ft | 467 kts | 74° |
| 2026-04-15 09:12 | 52.85678 | 13.92392 | 37273 ft | 467 kts | 75° |
| 2026-04-15 09:13 | 52.86858 | 14.02929 | 37277 ft | 468 kts | 75° |
| 2026-04-15 09:13 | 52.88029 | 14.13478 | 37273 ft | 467 kts | 75° |
| 2026-04-15 09:14 | 52.89189 | 14.24023 | 37267 ft | 469 kts | 75° |
| 2026-04-15 09:14 | 52.90516 | 14.34504 | 37279 ft | 466 kts | 70° |
| 2026-04-15 09:15 | 52.92155 | 14.44840 | 37268 ft | 467 kts | 70° |
| 2026-04-15 09:15 | 52.93803 | 14.55167 | 37273 ft | 468 kts | 70° |
| 2026-04-15 09:16 | 52.95440 | 14.65546 | 37260 ft | 467 kts | 71° |
| 2026-04-15 09:16 | 52.97069 | 14.75961 | 37264 ft | 468 kts | 71° |
| 2026-04-15 09:17 | 52.98680 | 14.86344 | 37253 ft | 468 kts | 71° |
| 2026-04-15 09:17 | 53.00298 | 14.96835 | 37238 ft | 470 kts | 71° |
| 2026-04-15 09:18 | 53.01905 | 15.07307 | 37237 ft | 470 kts | 71° |
| 2026-04-15 09:18 | 53.03502 | 15.17815 | 37251 ft | 471 kts | 71° |
| 2026-04-15 09:19 | 53.05085 | 15.28276 | 37249 ft | 471 kts | 71° |
| 2026-04-15 09:19 | 53.06672 | 15.38839 | 37244 ft | 471 kts | 71° |
| 2026-04-15 09:20 | 53.08240 | 15.49348 | 37243 ft | 471 kts | 72° |
| 2026-04-15 09:20 | 53.09797 | 15.59849 | 37250 ft | 471 kts | 72° |
| 2026-04-15 09:21 | 53.11350 | 15.70407 | 37234 ft | 471 kts | 73° |
| 2026-04-15 09:21 | 53.12883 | 15.80903 | 37230 ft | 471 kts | 73° |
| 2026-04-15 09:22 | 53.14428 | 15.91492 | 37244 ft | 470 kts | 73° |
| 2026-04-15 09:22 | 53.15954 | 16.02016 | 37247 ft | 470 kts | 73° |
| 2026-04-15 09:23 | 53.17474 | 16.12593 | 37247 ft | 471 kts | 73° |
| 2026-04-15 09:23 | 53.18977 | 16.23132 | 37244 ft | 471 kts | 73° |
| 2026-04-15 09:24 | 53.20474 | 16.33697 | 37342 ft | 470 kts | 73° |
| 2026-04-15 09:24 | 53.21965 | 16.44292 | 37267 ft | 470 kts | 73° |
| 2026-04-15 09:25 | 53.23444 | 16.54883 | 37252 ft | 470 kts | 73° |
| 2026-04-15 09:25 | 53.24903 | 16.65409 | 37248 ft | 470 kts | 74° |
| 2026-04-15 09:26 | 53.26365 | 16.76051 | 37231 ft | 470 kts | 74° |
| 2026-04-15 09:26 | 53.27803 | 16.86616 | 37244 ft | 470 kts | 74° |
| 2026-04-15 09:27 | 53.29233 | 16.97191 | 37234 ft | 469 kts | 74° |
| 2026-04-15 09:27 | 53.30658 | 17.07779 | 37230 ft | 469 kts | 74° |
| 2026-04-15 09:28 | 53.32070 | 17.18381 | 37226 ft | 469 kts | 75° |
| 2026-04-15 09:28 | 53.33476 | 17.29002 | 37001 ft | 470 kts | 75° |
| 2026-04-15 09:29 | 53.34175 | 17.34323 | 36794 ft | 467 kts | 75° |
| 2026-04-15 09:29 | 53.34865 | 17.39595 | 36533 ft | 465 kts | 75° |
| 2026-04-15 09:29 | 53.35547 | 17.44827 | 36139 ft | 463 kts | 74° |
| 2026-04-15 09:29 | 53.36229 | 17.50081 | 35609 ft | 465 kts | 74° |
| 2026-04-15 09:30 | 53.36906 | 17.55308 | 34986 ft | 468 kts | 74° |
| 2026-04-15 09:30 | 53.37602 | 17.60688 | 34293 ft | 473 kts | 74° |
| 2026-04-15 09:30 | 53.38292 | 17.66040 | 33649 ft | 477 kts | 75° |
| 2026-04-15 09:30 | 53.38982 | 17.71394 | 33147 ft | 475 kts | 75° |
| 2026-04-15 09:31 | 53.39670 | 17.76785 | 32606 ft | 471 kts | 75° |
| 2026-04-15 09:31 | 53.40348 | 17.82120 | 32100 ft | 467 kts | 75° |
| 2026-04-15 09:31 | 53.41012 | 17.87371 | 31613 ft | 462 kts | 75° |
| 2026-04-15 09:31 | 53.41669 | 17.92586 | 31145 ft | 458 kts | 75° |
| 2026-04-15 09:32 | 53.42316 | 17.97741 | 30628 ft | 453 kts | 75° |
| 2026-04-15 09:32 | 53.42954 | 18.02830 | 30139 ft | 447 kts | 75° |
| 2026-04-15 09:32 | 53.43588 | 18.07915 | 29667 ft | 442 kts | 75° |
| 2026-04-15 09:32 | 53.44205 | 18.12877 | 29213 ft | 436 kts | 76° |
| 2026-04-15 09:33 | 53.44820 | 18.17840 | 28758 ft | 430 kts | 75° |
| 2026-04-15 09:33 | 53.45412 | 18.22640 | 28319 ft | 425 kts | 76° |
| 2026-04-15 09:33 | 53.46006 | 18.27466 | 27871 ft | 420 kts | 76° |
| 2026-04-15 09:33 | 53.46590 | 18.32229 | 27426 ft | 415 kts | 76° |
| 2026-04-15 09:34 | 53.47162 | 18.36915 | 26991 ft | 410 kts | 76° |
| 2026-04-15 09:34 | 53.47730 | 18.41578 | 26556 ft | 405 kts | 76° |
| 2026-04-15 09:34 | 53.48280 | 18.46118 | 26134 ft | 401 kts | 76° |
| 2026-04-15 09:34 | 53.48832 | 18.50683 | 25713 ft | 397 kts | 76° |
| 2026-04-15 09:35 | 53.49372 | 18.55172 | 25291 ft | 393 kts | 76° |
| 2026-04-15 09:35 | 53.49907 | 18.59630 | 24872 ft | 390 kts | 76° |
| 2026-04-15 09:35 | 53.50436 | 18.64046 | 24453 ft | 386 kts | 76° |
| 2026-04-15 09:35 | 53.50957 | 18.68426 | 24043 ft | 383 kts | 77° |
| 2026-04-15 09:36 | 53.51479 | 18.72815 | 23641 ft | 380 kts | 77° |
| 2026-04-15 09:36 | 53.51979 | 18.77123 | 23248 ft | 378 kts | 78° |
| 2026-04-15 09:36 | 53.52357 | 18.81445 | 22828 ft | 376 kts | 82° |
| 2026-04-15 09:36 | 53.52664 | 18.85766 | 22433 ft | 374 kts | 82° |
| 2026-04-15 09:37 | 53.52961 | 18.90123 | 22026 ft | 372 kts | 82° |
| 2026-04-15 09:37 | 53.53248 | 18.94391 | 21624 ft | 370 kts | 82° |
| 2026-04-15 09:37 | 53.53534 | 18.98629 | 21220 ft | 368 kts | 82° |
| 2026-04-15 09:37 | 53.53824 | 19.02922 | 20812 ft | 366 kts | 83° |
| 2026-04-15 09:38 | 53.54110 | 19.07151 | 20405 ft | 365 kts | 83° |
| 2026-04-15 09:38 | 53.54393 | 19.11356 | 20013 ft | 363 kts | 83° |
| 2026-04-15 09:38 | 53.54671 | 19.15513 | 19610 ft | 361 kts | 83° |
| 2026-04-15 09:38 | 53.54948 | 19.19665 | 19221 ft | 359 kts | 83° |
| 2026-04-15 09:39 | 53.55224 | 19.23831 | 18829 ft | 357 kts | 83° |
| 2026-04-15 09:39 | 53.55495 | 19.27926 | 18435 ft | 356 kts | 83° |
| 2026-04-15 09:39 | 53.55763 | 19.32030 | 18037 ft | 354 kts | 83° |
| 2026-04-15 09:39 | 53.56028 | 19.36116 | 17639 ft | 353 kts | 83° |
| 2026-04-15 09:40 | 53.56293 | 19.40221 | 17240 ft | 351 kts | 83° |
| 2026-04-15 09:40 | 53.56553 | 19.44253 | 16844 ft | 350 kts | 83° |
| 2026-04-15 09:40 | 53.56813 | 19.48324 | 16438 ft | 349 kts | 83° |
| 2026-04-15 09:40 | 53.57068 | 19.52320 | 16030 ft | 348 kts | 83° |
| 2026-04-15 09:41 | 53.57324 | 19.56369 | 15640 ft | 346 kts | 83° |
| 2026-04-15 09:41 | 53.57576 | 19.60371 | 15233 ft | 345 kts | 83° |
| 2026-04-15 09:41 | 53.57825 | 19.64363 | 14834 ft | 344 kts | 83° |
| 2026-04-15 09:41 | 53.58071 | 19.68309 | 14441 ft | 342 kts | 84° |
| 2026-04-15 09:42 | 53.58317 | 19.72296 | 14051 ft | 340 kts | 84° |
| 2026-04-15 09:42 | 53.58558 | 19.76227 | 13665 ft | 339 kts | 84° |
| 2026-04-15 09:42 | 53.58798 | 19.80160 | 13274 ft | 337 kts | 84° |
| 2026-04-15 09:42 | 53.59024 | 19.84056 | 12886 ft | 335 kts | 87° |
| 2026-04-15 09:43 | 53.58864 | 19.87903 | 12486 ft | 332 kts | 103° |
| 2026-04-15 09:43 | 53.58136 | 19.91539 | 12095 ft | 329 kts | 115° |
| 2026-04-15 09:43 | 53.57195 | 19.95003 | 11700 ft | 327 kts | 116° |
| 2026-04-15 09:43 | 53.56224 | 19.98456 | 11306 ft | 325 kts | 117° |
| 2026-04-15 09:44 | 53.55232 | 20.01845 | 10909 ft | 322 kts | 117° |
| 2026-04-15 09:44 | 53.54245 | 20.05157 | 10530 ft | 320 kts | 117° |
| 2026-04-15 09:44 | 53.53262 | 20.08463 | 10300 ft | 311 kts | 117° |
| 2026-04-15 09:44 | 53.52314 | 20.11666 | 10192 ft | 299 kts | 117° |
| 2026-04-15 09:45 | 53.51406 | 20.14739 | 9857 ft | 296 kts | 117° |
| 2026-04-15 09:45 | 53.50494 | 20.17831 | 9496 ft | 294 kts | 117° |
| 2026-04-15 09:45 | 53.49596 | 20.20872 | 9153 ft | 293 kts | 117° |
| 2026-04-15 09:45 | 53.48690 | 20.23943 | 8806 ft | 291 kts | 117° |
| 2026-04-15 09:46 | 53.47804 | 20.26938 | 8471 ft | 288 kts | 117° |
| 2026-04-15 09:46 | 53.46912 | 20.29950 | 8131 ft | 286 kts | 117° |
| 2026-04-15 09:46 | 53.46034 | 20.32916 | 7798 ft | 284 kts | 117° |
| 2026-04-15 09:46 | 53.45166 | 20.35843 | 7470 ft | 282 kts | 117° |
| 2026-04-15 09:47 | 53.44294 | 20.38779 | 7145 ft | 280 kts | 117° |
| 2026-04-15 09:47 | 53.43432 | 20.41681 | 6819 ft | 278 kts | 117° |
| 2026-04-15 09:47 | 53.42575 | 20.44563 | 6490 ft | 276 kts | 117° |
| 2026-04-15 09:47 | 53.41722 | 20.47425 | 6166 ft | 274 kts | 117° |
| 2026-04-15 09:48 | 53.40882 | 20.50242 | 5850 ft | 272 kts | 117° |
| 2026-04-15 09:48 | 53.40034 | 20.53078 | 5524 ft | 271 kts | 117° |
| 2026-04-15 09:48 | 53.39201 | 20.55863 | 5211 ft | 269 kts | 117° |
| 2026-04-15 09:48 | 53.38365 | 20.58649 | 4892 ft | 268 kts | 117° |
| 2026-04-15 09:49 | 53.37529 | 20.61436 | 4571 ft | 266 kts | 117° |
| 2026-04-15 09:49 | 53.36669 | 20.64174 | 4254 ft | 264 kts | 121° |
| 2026-04-15 09:49 | 53.35640 | 20.66678 | 3949 ft | 262 kts | 128° |
| 2026-04-15 09:49 | 53.34558 | 20.69104 | 3675 ft | 261 kts | 127° |
| 2026-04-15 09:50 | 53.33541 | 20.71576 | 3451 ft | 255 kts | 124° |
| 2026-04-15 09:50 | 53.32631 | 20.74063 | 3271 ft | 249 kts | 121° |
| 2026-04-15 09:50 | 53.31810 | 20.76547 | 3092 ft | 242 kts | 120° |
| 2026-04-15 09:50 | 53.31136 | 20.79092 | 2962 ft | 233 kts | 101° |
| 2026-04-15 09:51 | 53.31259 | 20.81667 | 2950 ft | 221 kts | 66° |
| 2026-04-15 09:51 | 53.32082 | 20.83804 | 2967 ft | 221 kts | 47° |
| 2026-04-15 09:51 | 53.33265 | 20.85331 | 2955 ft | 209 kts | 26° |
| 2026-04-15 09:51 | 53.34546 | 20.86234 | 3032 ft | 189 kts | 17° |
| 2026-04-15 09:52 | 53.35768 | 20.86881 | 2820 ft | 184 kts | 15° |
| 2026-04-15 09:52 | 53.36977 | 20.87503 | 2569 ft | 180 kts | 15° |
| 2026-04-15 09:52 | 53.38135 | 20.88132 | 2314 ft | 169 kts | 16° |
| 2026-04-15 09:52 | 53.39191 | 20.88726 | 2115 ft | 155 kts | 17° |
| 2026-04-15 09:53 | 53.40170 | 20.89280 | 1887 ft | 143 kts | 17° |
| 2026-04-15 09:53 | 53.41099 | 20.89802 | 1697 ft | 139 kts | 17° |
| 2026-04-15 09:53 | 53.42010 | 20.90312 | 1524 ft | 139 kts | 17° |
| 2026-04-15 09:53 | 53.42926 | 20.90824 | 1347 ft | 138 kts | 18° |
| 2026-04-15 09:54 | 53.43829 | 20.91342 | 1161 ft | 137 kts | 18° |
| 2026-04-15 09:54 | 53.44727 | 20.91834 | 968 ft | 135 kts | 17° |
| 2026-04-15 09:54 | 53.45611 | 20.92332 | 781 ft | 133 kts | 18° |
| 2026-04-15 09:54 | 53.46489 | 20.92822 | 614 ft | 133 kts | 18° |
| 2026-04-15 09:55 | 53.47360 | 20.93308 | 449 ft | 131 kts | 18° |
| 2026-04-15 09:55 | 53.48125 | 20.93736 | 457 ft | 93 kts | 18° |
| 2026-04-15 09:55 | 53.48567 | 20.93983 | 463 ft | 40 kts | 18° |
| 2026-04-15 09:55 | 53.48750 | 20.94084 | 464 ft | 15 kts | 25° |
| 2026-04-15 09:56 | 53.48790 | 20.94230 | 463 ft | 13 kts | 99° |
| 2026-04-15 09:56 | 53.48773 | 20.94335 | 461 ft | 7 kts | 107° |
| 2026-04-15 09:56 | 53.48791 | 20.94435 | 461 ft | 5 kts | 99° |
| 2026-04-15 09:57 | 53.48779 | 20.94499 | 461 ft | 5 kts | 107° |
| 2026-04-15 09:57 | 53.48774 | 20.94526 | 461 ft | 0 kts | 109° |
| 2026-04-15 09:57 | 53.48773 | 20.94527 | 461 ft | 0 kts | 109° |